Terminal Aerodrome Forecast
Issued by NWS Sioux Falls, SD

Home | Current Version | Previous Version | Text Only | Print | Product List | Glossary On
Versions: 1 2 3 4 5 6 7 8 9 10 11 12 13 14
430
FTUS43 KFSD 211005 AAB
TAFHON
TAF AMD
KHON 211005Z 2110/2206 17015KT P6SM SCT150
     FM211200 31014G23KT P6SM BKN110
     FM212200 29013KT P6SM SCT150
     FM220000 26010KT P6SM FEW200=

USA.gov is the U.S. government's official web portal to all federal, state and local government web resources and services.